Swanton, Nebraska
Current Conditions -  °F | °C
As of 4:55 PM on Tuesday 21 Oct 2014 (Local Time) from KBIE Reporting Station
Clear Clear  
Wind Chill: 75°   Ceiling: Unl
Heat Index: 75°   Visibility: 10mi
Dew Point: 44°   Wind: 13mph
Humidity: 33%   Direction: 160°SSE
Pressure: 30.01"   Gusts: NA
Location:  40.38°N, 97.08°W
Report Text: KBIE 212155Z AUTO 16011KT 10SM CLR 24/07 A3001 RMK AO2 T02400066
Loading
Personal Weather Stations






























Interactive Weather Map
Tropical Storm Tracking
New forecast layout! Learn more

10-Day Weather Forecast

Advertisements
Track Severe Weather on mobile